Time;durP1;ratioP1;P1;durP2;ratioP2;P2;SDS_P1;SDS_P2;PMS_P1;PMS_P2;Temp;Humidity;BMP_temperature;BMP_pressure;BME280_temperature;BME280_humidity;BME280_pressure;Samples;Min_cycle;Max_cycle;Signal;HPM_P1;HPM_P2
2021/08/16 00:00:46;;;;;;;12.23;9.73;;;22.50;99.90;;;;;;5045244;28;20422;-65
2021/08/16 00:03:12;;;;;;;15.03;9.53;;;22.60;99.90;;;;;;5049986;28;20188;-64
2021/08/16 00:05:38;;;;;;;10.57;8.90;;;22.50;99.90;;;;;;5045413;28;20547;-64
2021/08/16 00:08:08;;;;;;;11.10;9.83;;;22.60;99.90;;;;;;5044498;28;20522;-64
2021/08/16 00:10:34;;;;;;;14.80;10.70;;;22.40;99.90;;;;;;5045988;28;20667;-65
2021/08/16 00:13:00;;;;;;;12.07;9.80;;;22.30;99.90;;;;;;5046305;28;20512;-64
2021/08/16 00:15:26;;;;;;;10.20;8.80;;;22.20;99.90;;;;;;5043432;28;20568;-65
2021/08/16 00:17:51;;;;;;;12.63;9.87;;;22.40;99.90;;;;;;5054915;28;20183;-64
2021/08/16 00:20:17;;;;;;;11.23;9.60;;;22.40;99.90;;;;;;5043647;28;20559;-65
2021/08/16 00:22:42;;;;;;;11.90;10.60;;;22.40;99.90;;;;;;5048062;28;20207;-65
2021/08/16 00:25:11;;;;;;;11.20;10.00;;;22.50;99.90;;;;;;5046338;28;20254;-64
2021/08/16 00:27:37;;;;;;;11.73;10.53;;;22.40;99.90;;;;;;5043982;28;20176;-64
2021/08/16 00:30:04;;;;;;;15.40;10.70;;;22.40;99.90;;;;;;5050397;28;20484;-65
2021/08/16 00:32:29;;;;;;;11.87;10.67;;;22.40;99.90;;;;;;5047975;28;20240;-65
2021/08/16 00:34:55;;;;;;;11.83;10.57;;;22.50;99.90;;;;;;5043454;28;21221;-65
2021/08/16 00:37:21;;;;;;;12.73;10.77;;;22.50;99.90;;;;;;5053713;28;20692;-64
2021/08/16 00:39:46;;;;;;;11.30;10.30;;;22.40;99.90;;;;;;5046635;28;20239;-65
2021/08/16 00:42:12;;;;;;;12.83;10.20;;;22.20;99.90;;;;;;5048713;28;20192;-64
2021/08/16 00:44:40;;;;;;;13.13;9.77;;;22.20;99.90;;;;;;5051129;28;20619;-65
2021/08/16 00:47:06;;;;;;;14.00;10.07;;;22.30;99.90;;;;;;5046073;28;20458;-64
2021/08/16 00:49:33;;;;;;;11.40;10.20;;;22.30;99.90;;;;;;5059185;28;20450;-64
2021/08/16 00:51:58;;;;;;;12.37;11.07;;;22.20;99.90;;;;;;5054018;28;20661;-63
2021/08/16 00:54:28;;;;;;;12.40;10.37;;;22.20;99.90;;;;;;5051597;28;20528;-64
2021/08/16 00:56:54;;;;;;;14.30;10.50;;;22.20;99.90;;;;;;5048829;28;20935;-64
2021/08/16 00:59:21;;;;;;;14.43;11.47;;;22.20;99.90;;;;;;5048422;28;20576;-65
2021/08/16 01:01:47;;;;;;;13.37;10.73;;;22.10;99.90;;;;;;5053286;28;20434;-64
2021/08/16 01:04:13;;;;;;;12.33;10.20;;;22.30;99.90;;;;;;5050319;28;21028;-64
2021/08/16 01:06:39;;;;;;;12.07;10.27;;;22.40;99.90;;;;;;5045114;28;20438;-64
2021/08/16 01:09:05;;;;;;;11.13;9.90;;;22.40;99.90;;;;;;5053612;28;20475;-64
2021/08/16 01:11:33;;;;;;;17.07;11.23;;;22.40;99.90;;;;;;5055510;28;21004;-64
2021/08/16 01:13:58;;;;;;;12.40;10.90;;;22.50;99.90;;;;;;5048551;28;20179;-65
2021/08/16 01:16:24;;;;;;;12.30;11.00;;;22.50;99.90;;;;;;5052358;28;20468;-64
2021/08/16 01:18:50;;;;;;;11.17;9.90;;;22.50;99.90;;;;;;5047825;28;20234;-64
2021/08/16 01:21:17;;;;;;;20.83;11.20;;;22.60;99.90;;;;;;5048865;28;20198;-64
2021/08/16 01:23:45;;;;;;;11.70;10.13;;;22.60;99.90;;;;;;5053239;28;20840;-65
2021/08/16 01:26:11;;;;;;;15.13;10.93;;;22.50;99.90;;;;;;5051213;28;21026;-64
2021/08/16 01:28:37;;;;;;;13.90;12.20;;;22.40;99.90;;;;;;5049235;28;20470;-65
2021/08/16 01:31:05;;;;;;;12.73;11.10;;;22.40;99.90;;;;;;5053888;28;20413;-64
2021/08/16 01:33:32;;;;;;;12.30;11.10;;;22.40;99.90;;;;;;5046282;28;20199;-64
2021/08/16 01:35:57;;;;;;;11.60;10.40;;;22.50;99.90;;;;;;5051770;28;20429;-65
2021/08/16 01:38:29;;;;;;;19.63;10.53;;;22.50;99.90;;;;;;5045759;28;20458;-65
2021/08/16 01:40:55;;;;;;;17.83;11.57;;;22.50;99.90;;;;;;5049209;28;20438;-64
2021/08/16 01:43:21;;;;;;;11.80;10.40;;;22.50;99.90;;;;;;5051897;28;20798;-64
2021/08/16 01:45:46;;;;;;;14.30;11.37;;;22.40;99.90;;;;;;5050762;28;20433;-64
2021/08/16 01:48:13;;;;;;;14.70;11.23;;;22.40;99.90;;;;;;5048380;28;20235;-65
2021/08/16 01:50:39;;;;;;;12.47;11.17;;;22.40;99.90;;;;;;5053659;28;20183;-64
2021/08/16 01:53:05;;;;;;;11.97;10.63;;;22.40;99.90;;;;;;5051645;28;20438;-64
2021/08/16 01:55:30;;;;;;;11.80;10.13;;;22.40;99.90;;;;;;5044861;28;20466;-64
2021/08/16 01:57:56;;;;;;;11.13;9.80;;;22.50;99.90;;;;;;5056316;28;20196;-65
2021/08/16 02:00:22;;;;;;;12.23;9.87;;;22.50;99.90;;;;;;5050808;28;20198;-64
2021/08/16 02:02:47;;;;;;;12.27;10.97;;;22.50;99.90;;;;;;5048925;28;20206;-64
2021/08/16 02:05:13;;;;;;;13.67;10.10;;;22.60;99.90;;;;;;5052836;28;20221;-64
2021/08/16 02:07:39;;;;;;;13.50;10.60;;;22.60;99.90;;;;;;5044801;28;20650;-64
2021/08/16 02:10:06;;;;;;;10.80;9.40;;;22.50;99.90;;;;;;5050271;28;20203;-65
2021/08/16 02:12:32;;;;;;;13.23;9.17;;;22.60;99.90;;;;;;5046020;28;20442;-64
2021/08/16 02:14:57;;;;;;;10.40;9.33;;;22.60;99.90;;;;;;5047110;28;20458;-64
2021/08/16 02:17:23;;;;;;;9.53;8.63;;;22.60;99.90;;;;;;5054118;28;20191;-63
2021/08/16 02:19:49;;;;;;;14.27;10.17;;;22.60;99.90;;;;;;5044118;28;20709;-64
2021/08/16 02:22:15;;;;;;;12.10;9.57;;;22.60;99.90;;;;;;5042599;28;20587;-65
2021/08/16 02:24:41;;;;;;;15.80;10.33;;;22.70;99.90;;;;;;5051832;28;20696;-64
2021/08/16 02:27:06;;;;;;;11.27;9.83;;;22.70;99.90;;;;;;5051578;28;20529;-65
2021/08/16 02:29:33;;;;;;;11.07;9.87;;;22.70;99.90;;;;;;5050788;28;20247;-64
2021/08/16 02:31:59;;;;;;;12.40;10.80;;;22.70;99.90;;;;;;5049140;28;20176;-64
2021/08/16 02:34:24;;;;;;;11.80;9.27;;;22.70;99.90;;;;;;5045011;28;20429;-64
2021/08/16 02:36:50;;;;;;;12.50;9.30;;;22.70;99.90;;;;;;5051849;28;20591;-64
2021/08/16 02:39:16;;;;;;;11.07;9.63;;;22.60;99.90;;;;;;5047830;28;20257;-65
2021/08/16 02:41:41;;;;;;;10.40;9.37;;;22.70;99.90;;;;;;5047112;28;20304;-65
2021/08/16 02:44:07;;;;;;;11.07;9.87;;;22.70;99.90;;;;;;5045019;28;20481;-65
2021/08/16 02:46:33;;;;;;;15.27;10.13;;;22.70;99.90;;;;;;5046248;28;20198;-66
2021/08/16 02:48:59;;;;;;;12.00;9.27;;;22.60;99.90;;;;;;5050687;28;21002;-64
2021/08/16 02:51:26;;;;;;;10.03;8.40;;;22.60;99.90;;;;;;5058941;28;20603;-64
2021/08/16 02:53:52;;;;;;;13.83;9.50;;;22.60;99.90;;;;;;5044327;28;20480;-64
2021/08/16 02:56:18;;;;;;;11.13;9.27;;;22.50;99.90;;;;;;5050645;28;20936;-65
2021/08/16 02:58:43;;;;;;;11.23;9.23;;;22.60;99.90;;;;;;5048020;28;20569;-66
2021/08/16 03:01:09;;;;;;;10.80;9.10;;;22.50;99.90;;;;;;5045666;28;20458;-65
2021/08/16 03:03:34;;;;;;;13.20;9.30;;;22.40;99.90;;;;;;5049264;28;20211;-64
2021/08/16 03:06:00;;;;;;;13.20;8.70;;;22.50;99.90;;;;;;5044715;28;20188;-64
2021/08/16 03:08:26;;;;;;;13.57;8.70;;;22.50;99.90;;;;;;5045271;28;20214;-64
2021/08/16 03:10:51;;;;;;;11.60;7.80;;;22.40;99.90;;;;;;5049312;28;20238;-64
2021/08/16 03:13:17;;;;;;;10.03;8.47;;;22.50;99.90;;;;;;5045536;28;20192;-65
2021/08/16 03:15:43;;;;;;;14.57;8.77;;;22.40;99.90;;;;;;5045565;28;20245;-65
2021/08/16 03:18:08;;;;;;;9.97;8.33;;;22.40;99.90;;;;;;5048121;28;20211;-64
2021/08/16 03:20:35;;;;;;;11.23;8.13;;;22.40;99.90;;;;;;5047842;28;20278;-65
2021/08/16 03:23:01;;;;;;;9.20;7.30;;;22.40;99.90;;;;;;5048016;28;20257;-64
2021/08/16 03:25:27;;;;;;;12.40;8.10;;;22.40;99.90;;;;;;5048200;28;20495;-64
2021/08/16 03:27:53;;;;;;;12.03;9.37;;;22.50;99.90;;;;;;5047095;28;20875;-64
2021/08/16 03:30:18;;;;;;;8.50;6.90;;;22.40;99.90;;;;;;5044524;28;20206;-65
2021/08/16 03:32:47;;;;;;;10.67;7.77;;;22.40;99.90;;;;;;5043462;28;20196;-64
2021/08/16 03:35:14;;;;;;;8.43;7.43;;;22.60;99.90;;;;;;5049939;28;20694;-64
2021/08/16 03:37:40;;;;;;;8.63;7.73;;;22.60;99.90;;;;;;5041101;28;20533;-64
2021/08/16 03:40:07;;;;;;;8.33;6.70;;;22.50;99.90;;;;;;5045596;28;20565;-64
2021/08/16 03:42:33;;;;;;;10.53;8.20;;;22.50;99.90;;;;;;5051331;28;20517;-64
2021/08/16 03:44:58;;;;;;;11.60;8.10;;;22.60;99.90;;;;;;5042003;28;20560;-64
2021/08/16 03:47:24;;;;;;;9.13;7.03;;;22.40;99.90;;;;;;5049063;28;20468;-65
2021/08/16 03:49:54;;;;;;;7.93;7.13;;;22.40;99.90;;;;;;5049339;28;20203;-64
2021/08/16 03:52:20;;;;;;;9.33;7.37;;;22.50;99.90;;;;;;5042395;28;20207;-65
2021/08/16 03:54:45;;;;;;;8.80;7.90;;;22.60;99.90;;;;;;5053882;28;20450;-65
2021/08/16 03:57:11;;;;;;;8.63;7.53;;;22.60;99.90;;;;;;5045512;28;20198;-64
2021/08/16 03:59:37;;;;;;;10.60;7.50;;;22.50;99.90;;;;;;5046815;28;20215;-65
2021/08/16 04:02:03;;;;;;;10.93;7.43;;;22.60;99.90;;;;;;5043112;28;20183;-64
2021/08/16 04:04:28;;;;;;;8.10;7.30;;;22.60;99.90;;;;;;5041540;28;20215;-64
2021/08/16 04:06:54;;;;;;;9.30;7.80;;;22.50;99.90;;;;;;5048962;28;20736;-64
2021/08/16 04:09:20;;;;;;;10.37;8.20;;;22.40;99.90;;;;;;5050197;28;20255;-65
2021/08/16 04:11:45;;;;;;;9.33;7.67;;;22.50;99.90;;;;;;5046383;28;20229;-64
2021/08/16 04:14:11;;;;;;;9.03;6.93;;;22.50;99.90;;;;;;5050505;28;20187;-65
2021/08/16 04:16:36;;;;;;;9.83;6.87;;;22.40;99.90;;;;;;5049645;28;20555;-64
2021/08/16 04:19:02;;;;;;;10.60;7.10;;;22.40;99.90;;;;;;5046174;28;20298;-64
2021/08/16 04:21:28;;;;;;;8.60;7.70;;;22.40;99.90;;;;;;5057271;28;20779;-64
2021/08/16 04:23:54;;;;;;;8.93;7.97;;;22.30;99.90;;;;;;5049012;28;20215;-64
2021/08/16 04:26:19;;;;;;;11.17;7.70;;;22.20;99.90;;;;;;5053339;28;20276;-64
2021/08/16 04:28:45;;;;;;;9.20;7.77;;;22.20;99.90;;;;;;5052587;28;20199;-64
2021/08/16 04:31:11;;;;;;;11.83;7.07;;;22.10;99.90;;;;;;5049138;28;20662;-65
2021/08/16 04:33:36;;;;;;;9.50;6.90;;;22.10;99.90;;;;;;5056268;28;20191;-65
2021/08/16 04:36:02;;;;;;;10.20;6.87;;;22.00;99.90;;;;;;5049112;28;20322;-64
2021/08/16 04:38:28;;;;;;;8.70;6.77;;;22.00;99.90;;;;;;5051363;28;20206;-64
2021/08/16 04:40:54;;;;;;;7.87;7.10;;;21.90;99.90;;;;;;5051750;28;20469;-64
2021/08/16 04:43:20;;;;;;;7.07;6.23;;;21.80;99.90;;;;;;5053394;28;20222;-64
2021/08/16 04:45:46;;;;;;;7.93;6.60;;;21.80;99.90;;;;;;5053918;28;20807;-65
2021/08/16 04:48:12;;;;;;;11.37;7.20;;;21.80;99.90;;;;;;5049471;28;20461;-65
2021/08/16 04:50:37;;;;;;;9.87;6.67;;;21.70;99.90;;;;;;5050064;28;20418;-65
2021/08/16 04:53:03;;;;;;;8.63;6.50;;;21.80;99.90;;;;;;5056674;28;20188;-64
2021/08/16 04:55:29;;;;;;;8.97;6.80;;;21.70;99.90;;;;;;5046377;28;20249;-63
2021/08/16 04:57:54;;;;;;;7.27;6.17;;;21.70;99.90;;;;;;5052411;28;20202;-64
2021/08/16 05:00:24;;;;;;;9.03;7.30;;;21.70;99.90;;;;;;5056772;28;20196;-64
2021/08/16 05:02:50;;;;;;;10.20;6.60;;;21.70;99.90;;;;;;5053290;28;20278;-65
2021/08/16 05:05:16;;;;;;;8.37;6.30;;;21.60;99.90;;;;;;5047928;28;20500;-65
2021/08/16 05:07:56;;;;;;;9.80;6.57;;;21.70;99.90;;;;;;5051131;28;20441;-64
2021/08/16 05:10:22;;;;;;;9.20;6.70;;;21.70;99.90;;;;;;5046870;28;20425;-65
2021/08/16 05:12:50;;;;;;;8.30;5.90;;;21.70;99.90;;;;;;5043220;28;21057;-64
2021/08/16 05:15:16;;;;;;;9.80;5.80;;;21.70;99.90;;;;;;5051487;28;20437;-64
2021/08/16 05:17:42;;;;;;;6.00;5.37;;;21.60;99.90;;;;;;5048706;28;20531;-65
2021/08/16 05:20:09;;;;;;;7.60;5.80;;;21.50;99.90;;;;;;5050947;28;20458;-64
2021/08/16 05:22:39;;;;;;;8.67;6.20;;;21.50;99.90;;;;;;5044329;28;20228;-64
2021/08/16 05:25:08;;;;;;;8.83;5.47;;;21.50;99.90;;;;;;5046025;28;20527;-65
2021/08/16 05:27:33;;;;;;;8.40;5.47;;;21.60;99.90;;;;;;5054116;28;20436;-65
2021/08/16 05:29:59;;;;;;;9.23;6.10;;;21.60;99.90;;;;;;5041489;28;20961;-64
2021/08/16 05:32:25;;;;;;;7.57;5.00;;;21.70;99.90;;;;;;5048112;28;20195;-64
2021/08/16 05:34:51;;;;;;;6.43;5.70;;;21.70;99.90;;;;;;5048949;28;20781;-64
2021/08/16 05:37:17;;;;;;;7.27;4.77;;;21.60;99.90;;;;;;5048983;28;20191;-65
2021/08/16 05:39:43;;;;;;;7.43;5.10;;;21.50;99.90;;;;;;5047592;28;20477;-66
2021/08/16 05:42:08;;;;;;;8.97;5.83;;;21.50;99.90;;;;;;5054402;28;20213;-65
2021/08/16 05:44:34;;;;;;;6.77;5.20;;;21.60;99.90;;;;;;5042313;28;20223;-65
2021/08/16 05:47:05;;;;;;;8.67;5.83;;;21.40;99.90;;;;;;5048052;28;20476;-64
2021/08/16 05:49:30;;;;;;;6.13;4.83;;;21.50;99.90;;;;;;5046282;28;20356;-64
2021/08/16 05:51:56;;;;;;;6.20;5.60;;;21.30;99.90;;;;;;5046024;28;20512;-64
2021/08/16 05:54:22;;;;;;;10.37;5.50;;;21.50;99.90;;;;;;5049252;28;20693;-63
2021/08/16 05:56:48;;;;;;;9.93;5.97;;;21.50;99.90;;;;;;5048596;28;20180;-65
2021/08/16 05:59:13;;;;;;;7.63;5.70;;;21.60;99.90;;;;;;5047711;28;20824;-64
2021/08/16 06:01:39;;;;;;;7.80;5.13;;;21.70;99.90;;;;;;5047351;28;20713;-65
2021/08/16 06:04:08;;;;;;;8.50;4.63;;;21.70;99.90;;;;;;5047762;28;20218;-64
2021/08/16 06:06:34;;;;;;;6.33;4.60;;;21.70;99.90;;;;;;5046866;28;20191;-64
2021/08/16 06:09:01;;;;;;;6.63;4.93;;;21.70;99.90;;;;;;5052557;28;20453;-64
2021/08/16 06:11:27;;;;;;;5.13;4.63;;;21.60;99.90;;;;;;5044396;28;20467;-64
2021/08/16 06:13:53;;;;;;;6.17;4.33;;;21.50;99.90;;;;;;5055797;28;20453;-65
2021/08/16 06:16:19;;;;;;;4.90;4.27;;;21.50;99.90;;;;;;5047719;28;20433;-65
2021/08/16 06:18:45;;;;;;;6.87;4.93;;;21.60;99.90;;;;;;5047909;28;20580;-64
2021/08/16 06:21:10;;;;;;;8.10;4.70;;;21.60;99.90;;;;;;5055503;28;20182;-65
2021/08/16 06:23:36;;;;;;;7.00;5.37;;;21.60;99.90;;;;;;5049305;28;20220;-65
2021/08/16 06:26:03;;;;;;;8.43;4.40;;;21.50;99.90;;;;;;5050007;28;20183;-65
2021/08/16 06:28:28;;;;;;;6.17;4.67;;;21.60;99.90;;;;;;5045369;28;20229;-64
2021/08/16 06:30:54;;;;;;;7.37;4.80;;;21.70;99.90;;;;;;5046412;28;20436;-65
2021/08/16 06:33:22;;;;;;;5.43;4.57;;;21.60;99.90;;;;;;5049717;28;20574;-63
2021/08/16 06:35:49;;;;;;;6.90;4.70;;;21.70;99.90;;;;;;5046648;28;20183;-64
2021/08/16 06:38:24;;;;;;;4.73;3.67;;;21.70;99.90;;;;;;5048313;28;20935;-62
2021/08/16 06:40:54;;;;;;;5.87;3.67;;;21.70;99.90;;;;;;5051851;28;20489;-62
2021/08/16 06:43:20;;;;;;;4.80;3.33;;;21.70;99.90;;;;;;5044685;28;20744;-63
2021/08/16 06:45:46;;;;;;;5.90;3.43;;;21.70;99.90;;;;;;5051909;28;20478;-63
2021/08/16 06:48:14;;;;;;;4.40;3.70;;;21.50;99.90;;;;;;5054366;28;20493;-62
2021/08/16 06:50:40;;;;;;;4.90;3.80;;;21.40;99.90;;;;;;5050736;28;20187;-63
2021/08/16 06:53:06;;;;;;;9.07;3.90;;;21.40;99.90;;;;;;5053281;28;20461;-63
2021/08/16 06:55:32;;;;;;;5.50;3.13;;;21.50;99.90;;;;;;5049248;28;20980;-63
2021/08/16 06:57:58;;;;;;;5.20;3.97;;;21.60;99.90;;;;;;5048855;28;20440;-63
2021/08/16 07:00:24;;;;;;;5.57;3.47;;;21.60;99.90;;;;;;5049407;28;20214;-62
2021/08/16 07:02:49;;;;;;;6.53;3.90;;;21.80;99.90;;;;;;5047483;28;20232;-62
2021/08/16 07:05:15;;;;;;;5.00;3.90;;;21.70;99.90;;;;;;5042042;28;20572;-62
2021/08/16 07:07:41;;;;;;;6.00;3.93;;;21.70;99.90;;;;;;5049062;28;20329;-63
2021/08/16 07:10:07;;;;;;;8.23;4.47;;;21.60;99.90;;;;;;5046581;28;20209;-63
2021/08/16 07:12:33;;;;;;;7.90;4.10;;;21.40;99.90;;;;;;5050395;28;20301;-64
2021/08/16 07:14:59;;;;;;;7.73;4.87;;;21.30;99.90;;;;;;5051619;28;20437;-63
2021/08/16 07:17:26;;;;;;;6.90;4.07;;;21.30;99.90;;;;;;5049303;28;20454;-63
2021/08/16 07:19:52;;;;;;;6.17;4.30;;;21.20;99.90;;;;;;5053680;28;20296;-63
2021/08/16 07:22:17;;;;;;;7.40;4.40;;;21.40;99.90;;;;;;5047805;28;20593;-63
2021/08/16 07:24:43;;;;;;;4.60;3.83;;;21.50;99.90;;;;;;5046727;28;20215;-64
2021/08/16 07:27:09;;;;;;;6.00;5.00;;;21.50;99.90;;;;;;5055016;28;20717;-62
2021/08/16 07:29:35;;;;;;;5.70;3.90;;;21.40;99.90;;;;;;5048362;28;20529;-64
2021/08/16 07:32:01;;;;;;;7.07;4.00;;;21.60;99.90;;;;;;5047167;28;20203;-63
2021/08/16 07:34:29;;;;;;;8.40;4.23;;;21.70;99.90;;;;;;5048048;28;21058;-63
2021/08/16 07:36:55;;;;;;;4.63;3.90;;;21.70;99.90;;;;;;5047309;28;20482;-63
2021/08/16 07:39:21;;;;;;;5.17;4.43;;;21.60;99.90;;;;;;5048479;28;20465;-62
2021/08/16 07:41:47;;;;;;;7.47;4.30;;;21.60;99.90;;;;;;5045845;28;20192;-63
2021/08/16 07:44:15;;;;;;;5.93;3.90;;;21.70;99.90;;;;;;5044382;28;21063;-63
2021/08/16 07:46:42;;;;;;;7.20;4.60;;;21.60;99.90;;;;;;5049236;28;20681;-63
2021/08/16 07:49:07;;;;;;;6.23;4.33;;;21.70;99.90;;;;;;5047743;28;20445;-63
2021/08/16 07:51:33;;;;;;;5.33;4.27;;;21.60;99.90;;;;;;5046570;28;20433;-63
2021/08/16 07:53:59;;;;;;;6.93;3.60;;;21.60;99.90;;;;;;5054251;28;20573;-63
2021/08/16 07:56:24;;;;;;;8.83;4.60;;;21.60;99.90;;;;;;5048229;28;20234;-63
2021/08/16 07:58:50;;;;;;;5.07;4.10;;;21.50;99.90;;;;;;5051279;28;20635;-63
2021/08/16 08:01:17;;;;;;;6.73;4.10;;;21.50;99.90;;;;;;5051218;28;20627;-64
2021/08/16 08:03:43;;;;;;;8.37;4.40;;;21.40;99.90;;;;;;5042177;28;20226;-63
2021/08/16 08:06:10;;;;;;;12.70;4.90;;;21.50;99.90;;;;;;5053532;28;20465;-64
2021/08/16 08:08:36;;;;;;;7.67;4.50;;;21.30;99.90;;;;;;5047529;28;20441;-64
2021/08/16 08:11:02;;;;;;;5.63;4.60;;;21.50;99.90;;;;;;5040628;28;20283;-65
2021/08/16 08:13:28;;;;;;;6.20;4.00;;;21.40;99.90;;;;;;5048286;28;20241;-63
2021/08/16 08:15:53;;;;;;;6.40;4.37;;;21.40;99.90;;;;;;5046153;28;21014;-63
2021/08/16 08:18:19;;;;;;;7.13;3.73;;;21.50;99.90;;;;;;5042626;28;20700;-63
2021/08/16 08:20:45;;;;;;;7.80;3.90;;;21.50;99.90;;;;;;5051070;28;20271;-64
2021/08/16 08:23:10;;;;;;;6.90;3.60;;;21.50;99.90;;;;;;5038238;28;20188;-63
2021/08/16 08:25:39;;;;;;;4.23;3.40;;;21.60;99.90;;;;;;5043937;28;20265;-63
2021/08/16 08:28:11;;;;;;;6.50;3.73;;;21.60;99.90;;;;;;5051175;28;20215;-64
2021/08/16 08:30:37;;;;;;;4.73;3.33;;;21.60;99.90;;;;;;5047803;28;20431;-62
2021/08/16 08:33:03;;;;;;;4.10;3.57;;;21.70;99.90;;;;;;5051452;28;20458;-63
2021/08/16 08:35:28;;;;;;;8.53;3.87;;;21.70;99.90;;;;;;5042682;28;21237;-63
2021/08/16 08:37:54;;;;;;;5.20;3.10;;;21.80;99.90;;;;;;5046718;28;20196;-64
2021/08/16 08:40:20;;;;;;;3.73;2.83;;;21.80;99.90;;;;;;5050164;28;20199;-63
2021/08/16 08:42:53;;;;;;;12.93;3.87;;;21.80;99.90;;;;;;5046289;28;20206;-65
2021/08/16 08:45:25;;;;;;;5.30;3.03;;;21.70;99.90;;;;;;5042506;28;20470;-63
2021/08/16 08:47:56;;;;;;;5.17;3.40;;;21.60;99.90;;;;;;5050895;28;20417;-63
2021/08/16 08:50:22;;;;;;;6.47;3.50;;;21.60;99.90;;;;;;5025270;28;20683;-63
2021/08/16 08:52:50;;;;;;;6.10;4.23;;;21.60;99.90;;;;;;5049186;28;20450;-64
2021/08/16 08:55:15;;;;;;;6.23;3.10;;;21.70;99.90;;;;;;5042291;28;20440;-63
2021/08/16 08:57:41;;;;;;;5.23;3.43;;;21.70;99.90;;;;;;5046985;28;20452;-63
2021/08/16 09:00:21;;;;;;;7.00;3.40;;;21.80;99.90;;;;;;5058809;22;20674;-65
2021/08/16 09:03:28;;;;;;;4.50;3.00;;;21.80;99.90;;;;;;5042043;28;20183;-66
2021/08/16 09:06:35;;;;;;;6.00;3.17;;;21.80;99.90;;;;;;5045695;28;20444;-66
2021/08/16 09:09:01;;;;;;;6.40;3.60;;;21.80;99.90;;;;;;5039336;28;20553;-62
2021/08/16 09:11:28;;;;;;;6.53;3.00;;;21.80;99.90;;;;;;5050198;28;20492;-61
2021/08/16 09:14:03;;;;;;;6.33;3.20;;;21.90;99.90;;;;;;5040655;28;20438;-71
2021/08/16 09:16:37;;;;;;;8.23;2.97;;;22.00;99.90;;;;;;5058531;28;20591;-67
2021/08/16 09:19:21;;;;;;;5.97;3.40;;;22.10;99.90;;;;;;5050490;28;20512;-67
2021/08/16 09:22:07;;;;;;;6.20;3.40;;;22.10;99.90;;;;;;5053427;28;20449;-70
2021/08/16 09:24:35;;;;;;;9.63;4.40;;;22.10;99.90;;;;;;5053232;28;20465;-67
2021/08/16 09:27:06;;;;;;;7.77;3.50;;;22.30;99.90;;;;;;5045901;28;20498;-61
2021/08/16 09:32:44;;;;;;;5.50;3.50;;;22.40;99.90;;;;;;5050090;28;20440;-70
2021/08/16 09:35:15;;;;;;;7.43;3.10;;;22.50;99.90;;;;;;5053878;28;20579;-66
2021/08/16 09:37:58;;;;;;;5.10;3.40;;;22.30;99.90;;;;;;5046859;28;20898;-67
2021/08/16 09:40:24;;;;;;;8.80;3.87;;;22.40;99.90;;;;;;5042725;28;20442;-71
2021/08/16 09:42:55;;;;;;;7.33;2.87;;;22.50;99.90;;;;;;5050895;28;20476;-67
2021/08/16 09:45:44;;;;;;;6.13;3.43;;;22.50;99.90;;;;;;5047944;28;20497;-67
2021/08/16 09:48:21;;;;;;;5.00;3.40;;;22.40;99.90;;;;;;5050098;28;20446;-67
2021/08/16 09:50:58;;;;;;;6.90;3.80;;;22.20;99.90;;;;;;5049600;28;20436;-62
2021/08/16 09:53:28;;;;;;;5.43;2.70;;;22.10;99.90;;;;;;5043763;28;20810;-62
2021/08/16 09:56:02;;;;;;;6.17;3.70;;;22.10;99.90;;;;;;5064088;28;20430;-62
2021/08/16 09:58:30;;;;;;;8.83;3.40;;;22.20;99.90;;;;;;5033746;28;20458;-71
2021/08/16 10:00:56;;;;;;;5.37;3.93;;;22.50;99.90;;;;;;5053818;28;20450;-68
2021/08/16 10:03:26;;;;;;;5.37;3.00;;;22.60;99.90;;;;;;5045797;28;20430;-66
2021/08/16 10:05:54;;;;;;;6.17;3.07;;;22.60;99.90;;;;;;5044565;28;20940;-64
2021/08/16 10:08:30;;;;;;;4.60;2.73;;;22.70;99.90;;;;;;5044129;28;20791;-62
2021/08/16 10:10:57;;;;;;;3.57;2.77;;;22.80;99.90;;;;;;5043851;28;20477;-62
2021/08/16 10:13:24;;;;;;;4.87;3.10;;;22.70;99.90;;;;;;5032920;28;20538;-72
2021/08/16 10:15:55;;;;;;;5.23;3.53;;;22.60;99.90;;;;;;5049632;28;20435;-71
2021/08/16 10:18:40;;;;;;;5.87;3.03;;;22.70;99.90;;;;;;5048325;28;20462;-67
2021/08/16 10:21:10;;;;;;;4.50;2.70;;;22.70;99.90;;;;;;5042667;28;20445;-67
2021/08/16 10:23:58;;;;;;;5.67;3.30;;;22.70;99.90;;;;;;5046882;28;20556;-67
2021/08/16 10:26:27;;;;;;;4.03;3.00;;;22.50;99.90;;;;;;5048750;28;20434;-67
2021/08/16 10:29:02;;;;;;;4.03;3.53;;;22.50;99.90;;;;;;5048998;28;20443;-71
2021/08/16 10:31:32;;;;;;;4.80;3.37;;;22.40;99.90;;;;;;5043377;28;21038;-69
2021/08/16 10:33:58;;;;;;;5.53;3.10;;;22.60;99.90;;;;;;5053419;28;20548;-69
2021/08/16 10:36:25;;;;;;;4.80;3.70;;;22.80;99.90;;;;;;5043714;28;20446;-69
2021/08/16 10:38:56;;;;;;;3.73;3.23;;;22.90;99.90;;;;;;5048604;28;20469;-69
2021/08/16 10:41:39;;;;;;;8.53;4.50;;;23.10;99.90;;;;;;5051635;28;20426;-62
2021/08/16 10:44:19;;;;;;;4.40;2.87;;;23.00;99.90;;;;;;5047882;28;20466;-67
2021/08/16 10:47:02;;;;;;;4.20;2.93;;;23.10;99.90;;;;;;5039363;28;20465;-69
2021/08/16 10:49:36;;;;;;;5.33;3.60;;;23.30;99.90;;;;;;5045844;28;20461;-68
2021/08/16 10:52:05;;;;;;;4.87;3.40;;;23.60;99.90;;;;;;5036786;28;20541;-63
2021/08/16 10:54:34;;;;;;;7.60;2.90;;;23.70;99.90;;;;;;5051314;28;20485;-70
2021/08/16 10:57:03;;;;;;;5.90;3.40;;;23.60;99.90;;;;;;5040800;28;20480;-71
2021/08/16 10:59:30;;;;;;;4.80;3.40;;;23.20;99.90;;;;;;5036843;28;21049;-63
2021/08/16 11:01:57;;;;;;;5.83;4.10;;;23.10;99.90;;;;;;5040222;28;20918;-64
2021/08/16 11:04:34;;;;;;;4.00;3.10;;;22.90;99.90;;;;;;5020494;28;20792;-63
2021/08/16 11:07:05;;;;;;;6.23;3.60;;;22.90;99.90;;;;;;5034652;28;20958;-64
2021/08/16 11:09:34;;;;;;;4.90;3.67;;;22.90;99.90;;;;;;5023461;28;20476;-68
2021/08/16 11:12:06;;;;;;;6.13;3.13;;;23.20;99.90;;;;;;5039170;28;20443;-67
2021/08/16 11:14:34;;;;;;;8.30;3.87;;;23.20;99.90;;;;;;5039130;28;20683;-69
2021/08/16 11:17:00;;;;;;;4.90;3.80;;;22.90;99.90;;;;;;5042065;28;20819;-69
2021/08/16 11:19:38;;;;;;;4.57;3.77;;;22.80;99.90;;;;;;5038470;28;21050;-69
2021/08/16 11:22:04;;;;;;;6.00;3.60;;;22.90;99.90;;;;;;5039369;28;20446;-69
2021/08/16 11:24:35;;;;;;;4.97;3.43;;;22.90;99.90;;;;;;5033847;28;20468;-68
2021/08/16 11:27:07;;;;;;;3.80;3.40;;;22.90;99.90;;;;;;5035937;28;20642;-64
2021/08/16 11:30:03;;;;;;;4.50;3.40;;;22.90;99.90;;;;;;5035191;28;20450;-69
2021/08/16 11:32:30;;;;;;;5.10;3.90;;;23.10;99.90;;;;;;5032660;28;20472;-67
2021/08/16 11:34:57;;;;;;;4.30;3.90;;;23.20;99.90;;;;;;5031234;28;20490;-67
2021/08/16 11:37:37;;;;;;;6.47;4.40;;;23.30;99.90;;;;;;5019216;28;20998;-67
2021/08/16 11:40:12;;;;;;;6.40;3.47;;;23.40;99.90;;;;;;5015415;28;20902;-66
2021/08/16 11:42:44;;;;;;;4.40;3.67;;;23.30;99.90;;;;;;5018623;28;20838;-67
2021/08/16 11:45:17;;;;;;;6.47;4.00;;;23.30;99.90;;;;;;5039263;28;20467;-70
2021/08/16 11:47:50;;;;;;;6.43;3.90;;;23.40;99.90;;;;;;5038026;28;20457;-68
2021/08/16 11:50:35;;;;;;;6.03;3.27;;;23.50;99.90;;;;;;5038073;28;20458;-69
2021/08/16 11:53:03;;;;;;;4.40;3.47;;;23.80;99.90;;;;;;5041224;28;20442;-68
2021/08/16 11:55:32;;;;;;;6.50;4.07;;;23.80;99.90;;;;;;5038530;28;20859;-69
2021/08/16 11:57:58;;;;;;;5.97;3.93;;;23.80;99.90;;;;;;5036823;28;20703;-69
2021/08/16 12:00:33;;;;;;;4.87;3.50;;;23.70;99.90;;;;;;5033772;28;20510;-63
2021/08/16 12:02:59;;;;;;;5.47;4.23;;;23.60;99.90;;;;;;5034264;28;20191;-68
2021/08/16 12:05:26;;;;;;;5.70;3.80;;;23.60;99.90;;;;;;5033795;28;20497;-68
2021/08/16 12:07:52;;;;;;;7.47;4.43;;;23.50;99.90;;;;;;5029635;28;20964;-69
2021/08/16 12:10:20;;;;;;;7.10;4.23;;;24.00;99.90;;;;;;5035426;28;20488;-69
2021/08/16 12:13:02;;;;;;;5.03;3.80;;;24.50;99.90;;;;;;5038321;28;20184;-66
2021/08/16 12:15:41;;;;;;;5.77;3.30;;;25.20;99.90;;;;;;5047655;28;20856;-68
2021/08/16 12:18:08;;;;;;;4.53;3.57;;;25.60;99.90;;;;;;5037129;28;20888;-68
2021/08/16 12:20:42;;;;;;;6.10;3.80;;;25.60;99.90;;;;;;5036630;28;20644;-68
2021/08/16 12:23:08;;;;;;;6.23;3.97;;;25.40;99.90;;;;;;5033109;28;20469;-69
2021/08/16 12:25:49;;;;;;;5.17;3.80;;;25.30;99.90;;;;;;5044199;28;21014;-62
2021/08/16 12:28:15;;;;;;;9.37;4.43;;;25.60;99.90;;;;;;5016277;28;20215;-69
2021/08/16 12:30:41;;;;;;;4.53;3.70;;;25.50;99.90;;;;;;5034429;28;20514;-68
2021/08/16 12:33:21;;;;;;;5.40;4.10;;;25.50;99.90;;;;;;5050351;28;20412;-68
2021/08/16 12:35:57;;;;;;;6.63;3.47;;;25.60;99.90;;;;;;5035410;28;20660;-62
2021/08/16 12:38:30;;;;;;;4.20;3.40;;;26.10;99.90;;;;;;5018592;28;20504;-65
2021/08/16 12:41:06;;;;;;;4.60;3.30;;;26.40;99.90;;;;;;5036700;28;20445;-62
2021/08/16 12:43:38;;;;;;;5.07;3.50;;;26.40;99.90;;;;;;5036436;28;20454;-62
2021/08/16 12:46:04;;;;;;;6.20;3.47;;;25.50;99.90;;;;;;5029786;28;20433;-62
2021/08/16 12:48:41;;;;;;;5.27;3.60;;;25.40;99.90;;;;;;5036373;28;20492;-62
2021/08/16 12:51:06;;;;;;;4.83;3.40;;;25.00;99.90;;;;;;5038366;28;20255;-65